createdAt,value
2023-02-11T00:03:23.812Z,-1.61
2023-02-11T00:13:24.895Z,-1.76
2023-02-11T00:18:17.168Z,-1.78
2023-02-11T00:23:09.483Z,-1.72
2023-02-11T00:28:01.160Z,-1.88
2023-02-11T00:37:58.592Z,-2.13
2023-02-11T00:42:50.259Z,-2.17
2023-02-11T00:47:41.976Z,-2.10
2023-02-11T00:52:33.751Z,-2.26
2023-02-11T00:57:27.487Z,-2.22
2023-02-11T01:02:19.236Z,-2.29
2023-02-11T01:07:10.900Z,-2.31
2023-02-11T01:17:10.058Z,-2.30
2023-02-11T01:22:01.750Z,-2.26
2023-02-11T01:26:53.641Z,-2.24
2023-02-11T01:31:45.511Z,-2.26
2023-02-11T01:36:37.408Z,-2.18
2023-02-11T01:41:29.163Z,-2.22
2023-02-11T01:46:35.215Z,-2.28
2023-02-11T01:51:43.720Z,-2.50
2023-02-11T01:57:01.082Z,-2.52
2023-02-11T02:02:01.912Z,-2.63
2023-02-11T02:07:06.347Z,-2.60
2023-02-11T02:11:58.150Z,-2.66
2023-02-11T02:16:50.337Z,-2.36
2023-02-11T02:22:55.006Z,-2.51
2023-02-11T02:28:27.393Z,-2.51
2023-02-11T02:33:34.904Z,-2.64
2023-02-11T02:38:35.425Z,-2.80
2023-02-11T02:43:29.360Z,-2.74
2023-02-11T02:48:30.012Z,-2.55
2023-02-11T02:53:42.844Z,-2.67
2023-02-11T02:58:47.206Z,-2.71
2023-02-11T03:03:54.571Z,-2.83
2023-02-11T03:09:10.363Z,-2.91
2023-02-11T03:14:10.475Z,-2.89
2023-02-11T03:19:19.640Z,-2.96
2023-02-11T03:24:24.216Z,-2.74
2023-02-11T03:29:27.831Z,-2.60
2023-02-11T03:34:40.813Z,-2.54
2023-02-11T03:39:39.502Z,-2.61
2023-02-11T03:44:43.925Z,-2.71
2023-02-11T03:49:40.288Z,-2.81
2023-02-11T03:54:32.402Z,-2.79
2023-02-11T03:59:24.457Z,-2.76
2023-02-11T04:04:16.516Z,-2.72
2023-02-11T04:09:08.777Z,-2.54
2023-02-11T04:14:00.453Z,-2.57
2023-02-11T04:18:52.110Z,-2.49
2023-02-11T04:23:43.813Z,-2.39
2023-02-11T04:28:36.128Z,-2.48
2023-02-11T04:33:28.015Z,-2.47
2023-02-11T04:38:19.764Z,-2.46
2023-02-11T04:43:11.611Z,-2.45
2023-02-11T04:48:04.277Z,-2.39
2023-02-11T04:52:56.030Z,-2.35
2023-02-11T04:57:47.708Z,-2.42
2023-02-11T05:02:39.462Z,-2.53
2023-02-11T05:07:32.076Z,-2.62
2023-02-11T05:12:24.229Z,-2.64
2023-02-11T05:17:17.751Z,-2.57
2023-02-11T05:27:15.891Z,-2.64
2023-02-11T05:32:09.098Z,-2.65
2023-02-11T05:42:27.991Z,-2.80
2023-02-11T05:47:19.775Z,-2.83
2023-02-11T05:52:11.724Z,-2.88
2023-02-11T05:57:04.340Z,-2.73
2023-02-11T06:01:56.246Z,-2.66
2023-02-11T06:06:48.478Z,-2.78
2023-02-11T06:11:40.637Z,-2.75
2023-02-11T06:16:32.694Z,-2.82
2023-02-11T06:21:33.474Z,-2.94
2023-02-11T06:26:32.369Z,-3.04
2023-02-11T06:31:24.742Z,-2.99
2023-02-11T06:36:22.663Z,-2.87
2023-02-11T06:41:18.337Z,-2.78
2023-02-11T06:46:10.496Z,-2.68
2023-02-11T06:51:11.413Z,-2.57
2023-02-11T06:56:10.271Z,-2.50
2023-02-11T07:01:14.525Z,-2.52
2023-02-11T07:06:09.920Z,-2.48
2023-02-11T07:11:02.217Z,-2.43
2023-02-11T07:15:54.116Z,-2.27
2023-02-11T07:20:47.774Z,-2.02
2023-02-11T07:25:39.577Z,-1.91
2023-02-11T07:30:31.846Z,-1.82
2023-02-11T07:35:24.271Z,-1.70
2023-02-11T07:40:17.258Z,-1.52
2023-02-11T07:55:26.300Z,-0.84
2023-02-11T08:05:24.045Z,-0.70
2023-02-11T08:10:15.856Z,-0.39
2023-02-11T08:25:27.940Z,0.16
2023-02-11T08:30:20.599Z,0.36
2023-02-11T08:35:15.325Z,0.64
2023-02-11T08:40:07.624Z,0.84
2023-02-11T08:45:00.657Z,0.95
2023-02-11T08:49:53.860Z,1.15
2023-02-11T08:54:49.718Z,1.29
2023-02-11T08:59:42.200Z,1.45
2023-02-11T09:09:40.351Z,1.85
2023-02-11T09:14:32.719Z,2.03
2023-02-11T09:24:30.564Z,2.27
2023-02-11T09:29:25.280Z,2.41
2023-02-11T09:34:17.728Z,2.28
2023-02-11T09:39:30.189Z,2.39
2023-02-11T09:49:57.367Z,2.43
2023-02-11T09:54:59.962Z,2.67
2023-02-11T09:59:52.279Z,2.66
2023-02-11T10:05:25.698Z,2.69
2023-02-11T10:10:36.149Z,2.65
2023-02-11T10:16:13.722Z,2.72
2023-02-11T10:21:36.911Z,2.74
2023-02-11T10:31:46.315Z,2.88
2023-02-11T10:36:42.062Z,2.98
2023-02-11T10:41:41.688Z,3.08
2023-02-11T10:51:51.418Z,3.13
2023-02-11T10:56:59.543Z,3.05
2023-02-11T11:12:40.300Z,3.17
2023-02-11T11:17:34.151Z,3.38
2023-02-11T11:27:32.508Z,3.81
2023-02-11T11:32:31.656Z,3.91
2023-02-11T11:37:43.727Z,4.23
2023-02-11T11:53:46.101Z,4.91
2023-02-11T11:58:39.258Z,5.20
2023-02-11T12:16:13.990Z,5.87
2023-02-11T12:21:26.857Z,6.00
2023-02-11T12:32:09.512Z,6.29
2023-02-11T12:37:49.583Z,6.36
2023-02-11T12:43:16.995Z,6.47
2023-02-11T12:48:36.387Z,6.63
2023-02-11T12:53:54.247Z,6.97
2023-02-11T12:58:51.033Z,7.19
2023-02-11T13:03:53.781Z,7.18
2023-02-11T13:09:13.818Z,7.45
2023-02-11T13:14:22.348Z,7.63
2023-02-11T13:19:16.535Z,7.81
2023-02-11T13:24:22.237Z,8.13
2023-02-11T13:34:41.134Z,8.51
2023-02-11T13:44:39.709Z,8.56
2023-02-11T13:49:41.108Z,8.43
2023-02-11T13:54:40.286Z,8.65
2023-02-11T13:59:42.927Z,8.75
2023-02-11T14:05:03.688Z,8.71
2023-02-11T14:09:59.495Z,8.60
2023-02-11T14:20:50.401Z,8.72
2023-02-11T14:25:55.548Z,8.71
2023-02-11T14:36:50.754Z,8.63
2023-02-11T14:41:48.940Z,8.54
2023-02-11T14:46:50.409Z,8.52
2023-02-11T14:57:14.377Z,8.43
2023-02-11T15:02:28.604Z,8.03
2023-02-11T15:07:29.149Z,7.70
2023-02-11T15:12:36.091Z,7.37
2023-02-11T15:27:52.760Z,6.55
2023-02-11T15:32:53.289Z,6.31
2023-02-11T15:37:50.627Z,5.96
2023-02-11T15:48:28.200Z,5.58
2023-02-11T16:09:27.135Z,5.28
2023-02-11T16:14:34.100Z,5.21
2023-02-11T16:19:38.451Z,5.13
2023-02-11T16:24:44.867Z,4.95
2023-02-11T16:55:25.566Z,4.28
2023-02-11T17:10:36.840Z,3.89
2023-02-11T17:15:38.275Z,3.78
2023-02-11T17:30:48.070Z,3.37
2023-02-11T17:35:41.251Z,3.26
2023-02-11T17:40:36.895Z,3.16
2023-02-11T17:55:44.810Z,2.86
2023-02-11T18:00:41.704Z,2.85
2023-02-11T18:26:16.788Z,2.25
2023-02-11T18:51:49.096Z,1.80
2023-02-11T18:56:42.953Z,1.71
2023-02-11T19:11:53.732Z,1.37
2023-02-11T19:16:52.003Z,1.26
2023-02-11T19:32:09.709Z,1.11
2023-02-11T19:37:09.725Z,1.03
2023-02-11T20:02:29.525Z,1.12
2023-02-11T20:12:37.642Z,1.09
2023-02-11T20:27:43.848Z,0.91
2023-02-11T20:32:46.496Z,0.86
2023-02-11T20:42:46.973Z,0.78
2023-02-11T20:47:41.301Z,0.77
2023-02-11T20:52:35.248Z,0.68
2023-02-11T21:12:49.912Z,0.80
2023-02-11T21:17:43.627Z,0.63
2023-02-11T21:32:48.393Z,0.47
2023-02-11T21:42:55.175Z,0.40
2023-02-11T22:03:05.491Z,0.29
2023-02-11T22:18:15.113Z,0.14
2023-02-11T22:23:08.239Z,0.17
2023-02-11T23:04:29.475Z,-0.15
2023-02-11T23:19:41.546Z,-0.13
2023-02-11T23:24:37.853Z,-0.05
